LTFE/BJV METAR and TAF weather

Enter ICAO airport designator
Station Type Date Time Source
LTFE METAR 2019/06/26 05:50 UTC NOAA

LTFE 260550Z 02002KT CAVOK 29/19 Q1009 NOSIG


Station Type Date Time Source
LTFE Decoded METAR 2019/06/26 05:50 UTC NOAA

Bodrum Milas Airport, Turkey (LTFE) 37-14-53N 027-40-55E
Jun 26, 2019 - 01:50 AM EDT / 2019.06.26 0550 UTC
Wind: from the NNE (020 degrees) at 2 MPH (2 KT):0
Visibility: greater than 7 mile(s):0
Temperature: 84 F (29 C)
Dew Point: 66 F (19 C)
Relative Humidity: 54%
Pressure (altimeter): 29.80 in. Hg (1009 hPa)
ob: LTFE 260550Z 02002KT CAVOK 29/19 Q1009 NOSIG
cycle: 6

Station Type Date Time Source
LTFE TAF 2019/06/26 06:03 UTC NOAA

TAF LTFE 260440Z 2606/2706 VRB02KT CAVOK
BECMG 2608/2610 26014KT
TEMPO 2611/2615 FEW035
BECMG 2616/2618 VRB02KT

Example: see airport list